sensor_id;sensor_type;location;lat;lon;timestamp;P1;durP1;ratioP1;P2;durP2;ratioP2
6785;SDS011;3430;51.192;6.048;2022-08-18T00:02:25;6.93;;;6.23;;
6785;SDS011;3430;51.192;6.048;2022-08-18T00:04:52;7.90;;;6.90;;
6785;SDS011;3430;51.192;6.048;2022-08-18T00:07:19;8.40;;;7.50;;
6785;SDS011;3430;51.192;6.048;2022-08-18T00:09:45;8.23;;;6.73;;
6785;SDS011;3430;51.192;6.048;2022-08-18T00:12:16;9.33;;;8.10;;
6785;SDS011;3430;51.192;6.048;2022-08-18T00:14:43;9.10;;;7.60;;
6785;SDS011;3430;51.192;6.048;2022-08-18T00:17:09;8.17;;;7.27;;
6785;SDS011;3430;51.192;6.048;2022-08-18T00:19:34;8.93;;;8.00;;
6785;SDS011;3430;51.192;6.048;2022-08-18T00:22:00;10.57;;;8.27;;
6785;SDS011;3430;51.192;6.048;2022-08-18T00:24:25;10.23;;;8.37;;
6785;SDS011;3430;51.192;6.048;2022-08-18T00:26:51;13.67;;;9.30;;
6785;SDS011;3430;51.192;6.048;2022-08-18T00:29:17;11.57;;;9.37;;
6785;SDS011;3430;51.192;6.048;2022-08-18T00:31:42;12.33;;;9.07;;
6785;SDS011;3430;51.192;6.048;2022-08-18T00:34:08;10.10;;;8.50;;
6785;SDS011;3430;51.192;6.048;2022-08-18T00:36:33;11.50;;;8.97;;
6785;SDS011;3430;51.192;6.048;2022-08-18T00:38:59;12.77;;;9.80;;
6785;SDS011;3430;51.192;6.048;2022-08-18T00:41:25;10.77;;;9.03;;
6785;SDS011;3430;51.192;6.048;2022-08-18T00:43:51;11.57;;;8.80;;
6785;SDS011;3430;51.192;6.048;2022-08-18T00:46:20;11.93;;;9.37;;
6785;SDS011;3430;51.192;6.048;2022-08-18T00:48:46;12.23;;;9.23;;
6785;SDS011;3430;51.192;6.048;2022-08-18T00:51:14;12.30;;;9.77;;
6785;SDS011;3430;51.192;6.048;2022-08-18T00:53:47;12.50;;;8.70;;
6785;SDS011;3430;51.192;6.048;2022-08-18T00:56:16;12.67;;;9.60;;
6785;SDS011;3430;51.192;6.048;2022-08-18T00:58:46;12.07;;;10.03;;
6785;SDS011;3430;51.192;6.048;2022-08-18T01:01:14;13.27;;;9.60;;
6785;SDS011;3430;51.192;6.048;2022-08-18T01:03:40;10.70;;;8.77;;
6785;SDS011;3430;51.192;6.048;2022-08-18T01:06:15;12.20;;;9.23;;
6785;SDS011;3430;51.192;6.048;2022-08-18T01:08:41;13.67;;;9.73;;
6785;SDS011;3430;51.192;6.048;2022-08-18T01:11:07;12.47;;;10.17;;
6785;SDS011;3430;51.192;6.048;2022-08-18T01:13:34;12.37;;;9.83;;
6785;SDS011;3430;51.192;6.048;2022-08-18T01:16:02;15.40;;;10.07;;
6785;SDS011;3430;51.192;6.048;2022-08-18T01:18:47;14.10;;;9.73;;
6785;SDS011;3430;51.192;6.048;2022-08-18T01:21:35;13.57;;;9.50;;
6785;SDS011;3430;51.192;6.048;2022-08-18T01:24:26;12.47;;;9.23;;
6785;SDS011;3430;51.192;6.048;2022-08-18T01:27:12;12.97;;;9.60;;
6785;SDS011;3430;51.192;6.048;2022-08-18T01:29:48;13.83;;;10.27;;
6785;SDS011;3430;51.192;6.048;2022-08-18T01:32:15;13.80;;;9.67;;
6785;SDS011;3430;51.192;6.048;2022-08-18T01:34:44;12.70;;;10.40;;
6785;SDS011;3430;51.192;6.048;2022-08-18T01:37:13;15.73;;;9.80;;
6785;SDS011;3430;51.192;6.048;2022-08-18T01:39:38;13.50;;;10.07;;
6785;SDS011;3430;51.192;6.048;2022-08-18T01:42:04;15.13;;;11.03;;
6785;SDS011;3430;51.192;6.048;2022-08-18T01:44:29;16.10;;;10.60;;
6785;SDS011;3430;51.192;6.048;2022-08-18T01:46:55;16.77;;;11.17;;
6785;SDS011;3430;51.192;6.048;2022-08-18T01:49:20;15.57;;;10.97;;
6785;SDS011;3430;51.192;6.048;2022-08-18T01:51:46;12.53;;;9.57;;
6785;SDS011;3430;51.192;6.048;2022-08-18T01:54:13;14.90;;;10.63;;
6785;SDS011;3430;51.192;6.048;2022-08-18T01:56:39;17.53;;;11.47;;
6785;SDS011;3430;51.192;6.048;2022-08-18T01:59:06;14.70;;;10.20;;
6785;SDS011;3430;51.192;6.048;2022-08-18T02:01:38;14.90;;;10.77;;
6785;SDS011;3430;51.192;6.048;2022-08-18T02:04:05;17.13;;;11.40;;
6785;SDS011;3430;51.192;6.048;2022-08-18T02:06:31;13.10;;;10.33;;
6785;SDS011;3430;51.192;6.048;2022-08-18T02:08:57;15.80;;;11.40;;
6785;SDS011;3430;51.192;6.048;2022-08-18T02:11:22;17.87;;;11.47;;
6785;SDS011;3430;51.192;6.048;2022-08-18T02:13:48;18.70;;;12.60;;
6785;SDS011;3430;51.192;6.048;2022-08-18T02:16:13;15.33;;;11.03;;
6785;SDS011;3430;51.192;6.048;2022-08-18T02:18:39;15.30;;;11.13;;
6785;SDS011;3430;51.192;6.048;2022-08-18T02:21:14;14.33;;;10.97;;
6785;SDS011;3430;51.192;6.048;2022-08-18T02:23:40;16.77;;;12.17;;
6785;SDS011;3430;51.192;6.048;2022-08-18T02:26:07;16.33;;;11.83;;
6785;SDS011;3430;51.192;6.048;2022-08-18T02:28:33;17.17;;;10.90;;
6785;SDS011;3430;51.192;6.048;2022-08-18T02:31:06;16.83;;;12.50;;
6785;SDS011;3430;51.192;6.048;2022-08-18T02:33:31;18.03;;;12.07;;
6785;SDS011;3430;51.192;6.048;2022-08-18T02:35:58;16.53;;;11.67;;
6785;SDS011;3430;51.192;6.048;2022-08-18T02:38:23;17.10;;;11.57;;
6785;SDS011;3430;51.192;6.048;2022-08-18T02:40:59;16.40;;;11.23;;
6785;SDS011;3430;51.192;6.048;2022-08-18T02:43:25;17.53;;;12.37;;
6785;SDS011;3430;51.192;6.048;2022-08-18T02:45:51;15.73;;;11.33;;
6785;SDS011;3430;51.192;6.048;2022-08-18T02:48:17;17.07;;;11.50;;
6785;SDS011;3430;51.192;6.048;2022-08-18T02:51:10;18.67;;;12.70;;
6785;SDS011;3430;51.192;6.048;2022-08-18T02:53:36;18.03;;;12.67;;
6785;SDS011;3430;51.192;6.048;2022-08-18T02:56:22;20.20;;;12.97;;
6785;SDS011;3430;51.192;6.048;2022-08-18T02:58:52;21.07;;;13.33;;
6785;SDS011;3430;51.192;6.048;2022-08-18T03:01:19;20.63;;;13.50;;
6785;SDS011;3430;51.192;6.048;2022-08-18T03:03:45;19.87;;;12.87;;
6785;SDS011;3430;51.192;6.048;2022-08-18T03:06:11;19.27;;;13.47;;
6785;SDS011;3430;51.192;6.048;2022-08-18T03:08:37;19.30;;;13.03;;
6785;SDS011;3430;51.192;6.048;2022-08-18T03:11:02;18.93;;;12.30;;
6785;SDS011;3430;51.192;6.048;2022-08-18T03:13:27;18.30;;;12.80;;
6785;SDS011;3430;51.192;6.048;2022-08-18T03:15:54;16.60;;;11.83;;
6785;SDS011;3430;51.192;6.048;2022-08-18T03:18:20;22.97;;;13.27;;
6785;SDS011;3430;51.192;6.048;2022-08-18T03:20:46;21.50;;;13.50;;
6785;SDS011;3430;51.192;6.048;2022-08-18T03:23:12;17.83;;;11.80;;
6785;SDS011;3430;51.192;6.048;2022-08-18T03:25:47;17.63;;;12.40;;
6785;SDS011;3430;51.192;6.048;2022-08-18T03:28:13;19.07;;;13.53;;
6785;SDS011;3430;51.192;6.048;2022-08-18T03:30:38;19.93;;;13.60;;
6785;SDS011;3430;51.192;6.048;2022-08-18T03:33:04;20.37;;;13.10;;
6785;SDS011;3430;51.192;6.048;2022-08-18T03:35:29;19.87;;;12.03;;
6785;SDS011;3430;51.192;6.048;2022-08-18T03:37:58;20.50;;;13.10;;
6785;SDS011;3430;51.192;6.048;2022-08-18T03:40:24;20.63;;;13.23;;
6785;SDS011;3430;51.192;6.048;2022-08-18T03:42:50;19.67;;;14.03;;
6785;SDS011;3430;51.192;6.048;2022-08-18T03:45:15;18.40;;;13.50;;
6785;SDS011;3430;51.192;6.048;2022-08-18T03:47:41;20.43;;;13.03;;
6785;SDS011;3430;51.192;6.048;2022-08-18T03:50:06;20.33;;;13.20;;
6785;SDS011;3430;51.192;6.048;2022-08-18T03:52:32;22.77;;;13.13;;
6785;SDS011;3430;51.192;6.048;2022-08-18T03:54:57;17.90;;;12.57;;
6785;SDS011;3430;51.192;6.048;2022-08-18T03:57:24;19.53;;;13.23;;
6785;SDS011;3430;51.192;6.048;2022-08-18T03:59:49;19.67;;;13.80;;
6785;SDS011;3430;51.192;6.048;2022-08-18T04:02:15;19.90;;;13.87;;
6785;SDS011;3430;51.192;6.048;2022-08-18T04:04:40;19.90;;;13.00;;
6785;SDS011;3430;51.192;6.048;2022-08-18T04:07:07;19.13;;;12.87;;
6785;SDS011;3430;51.192;6.048;2022-08-18T04:09:33;17.23;;;11.77;;
6785;SDS011;3430;51.192;6.048;2022-08-18T04:12:02;20.10;;;13.03;;
6785;SDS011;3430;51.192;6.048;2022-08-18T04:14:28;18.53;;;12.13;;
6785;SDS011;3430;51.192;6.048;2022-08-18T04:16:56;16.93;;;11.90;;
6785;SDS011;3430;51.192;6.048;2022-08-18T04:19:22;18.57;;;11.97;;
6785;SDS011;3430;51.192;6.048;2022-08-18T04:21:49;17.10;;;12.37;;
6785;SDS011;3430;51.192;6.048;2022-08-18T04:24:15;16.87;;;12.13;;
6785;SDS011;3430;51.192;6.048;2022-08-18T04:26:42;17.83;;;12.10;;
6785;SDS011;3430;51.192;6.048;2022-08-18T04:29:09;19.60;;;12.50;;
6785;SDS011;3430;51.192;6.048;2022-08-18T04:31:35;19.23;;;13.00;;
6785;SDS011;3430;51.192;6.048;2022-08-18T04:34:01;21.83;;;13.30;;
6785;SDS011;3430;51.192;6.048;2022-08-18T04:36:28;18.60;;;12.67;;
6785;SDS011;3430;51.192;6.048;2022-08-18T04:38:54;18.93;;;13.27;;
6785;SDS011;3430;51.192;6.048;2022-08-18T04:41:20;17.80;;;12.20;;
6785;SDS011;3430;51.192;6.048;2022-08-18T04:43:48;18.93;;;11.57;;
6785;SDS011;3430;51.192;6.048;2022-08-18T04:46:14;15.77;;;11.90;;
6785;SDS011;3430;51.192;6.048;2022-08-18T04:48:40;17.90;;;12.07;;
6785;SDS011;3430;51.192;6.048;2022-08-18T04:51:07;16.90;;;11.13;;
6785;SDS011;3430;51.192;6.048;2022-08-18T04:53:33;18.37;;;13.03;;
6785;SDS011;3430;51.192;6.048;2022-08-18T04:56:30;16.27;;;12.13;;
6785;SDS011;3430;51.192;6.048;2022-08-18T05:01:24;19.70;;;12.23;;
6785;SDS011;3430;51.192;6.048;2022-08-18T05:03:50;19.87;;;12.53;;
6785;SDS011;3430;51.192;6.048;2022-08-18T05:06:16;19.10;;;13.00;;
6785;SDS011;3430;51.192;6.048;2022-08-18T05:08:42;19.73;;;13.10;;
6785;SDS011;3430;51.192;6.048;2022-08-18T05:11:08;21.23;;;13.13;;
6785;SDS011;3430;51.192;6.048;2022-08-18T05:13:33;18.17;;;12.70;;
6785;SDS011;3430;51.192;6.048;2022-08-18T05:15:59;17.90;;;12.63;;
6785;SDS011;3430;51.192;6.048;2022-08-18T05:18:32;21.87;;;12.50;;
6785;SDS011;3430;51.192;6.048;2022-08-18T05:20:58;15.60;;;12.00;;
6785;SDS011;3430;51.192;6.048;2022-08-18T05:23:24;17.80;;;12.53;;
6785;SDS011;3430;51.192;6.048;2022-08-18T05:25:55;18.10;;;12.47;;
6785;SDS011;3430;51.192;6.048;2022-08-18T05:28:21;18.20;;;12.50;;
6785;SDS011;3430;51.192;6.048;2022-08-18T05:30:46;18.17;;;12.30;;
6785;SDS011;3430;51.192;6.048;2022-08-18T05:33:11;19.93;;;13.33;;
6785;SDS011;3430;51.192;6.048;2022-08-18T05:35:41;19.10;;;13.30;;
6785;SDS011;3430;51.192;6.048;2022-08-18T05:40:36;20.63;;;13.27;;
6785;SDS011;3430;51.192;6.048;2022-08-18T05:43:01;18.57;;;11.20;;
6785;SDS011;3430;51.192;6.048;2022-08-18T05:45:28;20.07;;;13.53;;
6785;SDS011;3430;51.192;6.048;2022-08-18T05:47:59;17.43;;;12.07;;
6785;SDS011;3430;51.192;6.048;2022-08-18T05:50:25;15.43;;;11.17;;
6785;SDS011;3430;51.192;6.048;2022-08-18T05:52:58;15.10;;;10.40;;
6785;SDS011;3430;51.192;6.048;2022-08-18T05:58:11;13.37;;;9.70;;
6785;SDS011;3430;51.192;6.048;2022-08-18T06:00:37;14.07;;;9.63;;
6785;SDS011;3430;51.192;6.048;2022-08-18T06:03:19;12.57;;;8.77;;
6785;SDS011;3430;51.192;6.048;2022-08-18T06:08:13;13.37;;;8.90;;
6785;SDS011;3430;51.192;6.048;2022-08-18T06:10:40;15.33;;;10.23;;
6785;SDS011;3430;51.192;6.048;2022-08-18T06:13:08;14.07;;;10.20;;
6785;SDS011;3430;51.192;6.048;2022-08-18T06:29:21;13.93;;;10.97;;
6785;SDS011;3430;51.192;6.048;2022-08-18T06:31:55;17.73;;;11.93;;
6785;SDS011;3430;51.192;6.048;2022-08-18T06:34:30;14.73;;;10.80;;
6785;SDS011;3430;51.192;6.048;2022-08-18T06:37:06;17.03;;;11.57;;
6785;SDS011;3430;51.192;6.048;2022-08-18T06:39:50;15.30;;;11.70;;
6785;SDS011;3430;51.192;6.048;2022-08-18T06:42:20;14.93;;;10.90;;
6785;SDS011;3430;51.192;6.048;2022-08-18T06:44:51;14.57;;;10.03;;
6785;SDS011;3430;51.192;6.048;2022-08-18T06:49:58;15.23;;;11.27;;
6785;SDS011;3430;51.192;6.048;2022-08-18T06:52:31;15.27;;;11.30;;
6785;SDS011;3430;51.192;6.048;2022-08-18T06:54:58;14.37;;;10.07;;
6785;SDS011;3430;51.192;6.048;2022-08-18T06:57:32;16.13;;;10.57;;
6785;SDS011;3430;51.192;6.048;2022-08-18T07:00:21;17.27;;;10.50;;
6785;SDS011;3430;51.192;6.048;2022-08-18T07:02:46;12.77;;;10.27;;
6785;SDS011;3430;51.192;6.048;2022-08-18T07:05:17;15.07;;;10.97;;
6785;SDS011;3430;51.192;6.048;2022-08-18T07:07:43;11.80;;;9.90;;
6785;SDS011;3430;51.192;6.048;2022-08-18T07:12:40;11.47;;;8.93;;
6785;SDS011;3430;51.192;6.048;2022-08-18T07:15:06;16.33;;;9.70;;
6785;SDS011;3430;51.192;6.048;2022-08-18T07:17:32;14.00;;;9.93;;
6785;SDS011;3430;51.192;6.048;2022-08-18T07:20:09;10.10;;;8.30;;
6785;SDS011;3430;51.192;6.048;2022-08-18T07:25:21;11.57;;;9.03;;
6785;SDS011;3430;51.192;6.048;2022-08-18T07:27:48;9.00;;;7.67;;
6785;SDS011;3430;51.192;6.048;2022-08-18T07:30:24;11.27;;;8.67;;
6785;SDS011;3430;51.192;6.048;2022-08-18T07:32:52;10.80;;;7.63;;
6785;SDS011;3430;51.192;6.048;2022-08-18T07:35:20;9.80;;;7.63;;
6785;SDS011;3430;51.192;6.048;2022-08-18T07:37:59;11.43;;;7.73;;
6785;SDS011;3430;51.192;6.048;2022-08-18T07:40:31;14.20;;;8.17;;
6785;SDS011;3430;51.192;6.048;2022-08-18T07:43:00;12.47;;;7.60;;
6785;SDS011;3430;51.192;6.048;2022-08-18T07:47:54;10.03;;;7.27;;
6785;SDS011;3430;51.192;6.048;2022-08-18T07:50:21;8.93;;;7.13;;
6785;SDS011;3430;51.192;6.048;2022-08-18T07:55:29;11.37;;;6.43;;
6785;SDS011;3430;51.192;6.048;2022-08-18T07:58:02;7.27;;;5.83;;
6785;SDS011;3430;51.192;6.048;2022-08-18T08:00:33;9.07;;;6.80;;
6785;SDS011;3430;51.192;6.048;2022-08-18T08:08:15;10.90;;;7.37;;
6785;SDS011;3430;51.192;6.048;2022-08-18T08:10:54;9.93;;;6.80;;
6785;SDS011;3430;51.192;6.048;2022-08-18T08:16:00;9.53;;;6.83;;
6785;SDS011;3430;51.192;6.048;2022-08-18T08:18:36;9.03;;;7.27;;
6785;SDS011;3430;51.192;6.048;2022-08-18T08:21:08;9.27;;;7.07;;
6785;SDS011;3430;51.192;6.048;2022-08-18T08:23:57;8.80;;;7.07;;
6785;SDS011;3430;51.192;6.048;2022-08-18T08:29:06;7.77;;;6.60;;
6785;SDS011;3430;51.192;6.048;2022-08-18T08:34:25;9.60;;;6.77;;
6785;SDS011;3430;51.192;6.048;2022-08-18T08:36:53;10.07;;;7.10;;
6785;SDS011;3430;51.192;6.048;2022-08-18T08:39:33;9.97;;;7.00;;
6785;SDS011;3430;51.192;6.048;2022-08-18T08:42:03;7.77;;;6.47;;
6785;SDS011;3430;51.192;6.048;2022-08-18T08:44:34;7.13;;;6.40;;
6785;SDS011;3430;51.192;6.048;2022-08-18T08:47:09;9.83;;;6.47;;
6785;SDS011;3430;51.192;6.048;2022-08-18T08:49:38;7.13;;;5.83;;
6785;SDS011;3430;51.192;6.048;2022-08-18T08:54:42;6.27;;;5.30;;
6785;SDS011;3430;51.192;6.048;2022-08-18T08:57:09;8.27;;;5.90;;
6785;SDS011;3430;51.192;6.048;2022-08-18T08:59:35;8.50;;;5.40;;
6785;SDS011;3430;51.192;6.048;2022-08-18T09:02:06;6.50;;;5.30;;
6785;SDS011;3430;51.192;6.048;2022-08-18T09:07:04;6.70;;;5.67;;
6785;SDS011;3430;51.192;6.048;2022-08-18T09:09:46;5.07;;;4.57;;
6785;SDS011;3430;51.192;6.048;2022-08-18T09:12:21;7.30;;;5.80;;
6785;SDS011;3430;51.192;6.048;2022-08-18T09:17:54;7.60;;;5.70;;
6785;SDS011;3430;51.192;6.048;2022-08-18T09:22:50;5.37;;;4.50;;
6785;SDS011;3430;51.192;6.048;2022-08-18T09:28:15;7.10;;;4.90;;
6785;SDS011;3430;51.192;6.048;2022-08-18T09:30:43;6.50;;;5.27;;
6785;SDS011;3430;51.192;6.048;2022-08-18T09:33:48;6.50;;;4.57;;
6785;SDS011;3430;51.192;6.048;2022-08-18T09:38:55;6.63;;;4.90;;
6785;SDS011;3430;51.192;6.048;2022-08-18T09:41:47;5.53;;;4.80;;
6785;SDS011;3430;51.192;6.048;2022-08-18T09:44:55;5.70;;;4.90;;
6785;SDS011;3430;51.192;6.048;2022-08-18T09:47:00;5.90;;;4.83;;
6785;SDS011;3430;51.192;6.048;2022-08-18T09:51:55;4.93;;;4.40;;
6785;SDS011;3430;51.192;6.048;2022-08-18T09:54:24;5.67;;;4.47;;
6785;SDS011;3430;51.192;6.048;2022-08-18T10:01:59;6.87;;;4.53;;
6785;SDS011;3430;51.192;6.048;2022-08-18T10:07:30;5.60;;;4.33;;
6785;SDS011;3430;51.192;6.048;2022-08-18T10:09:50;9.23;;;4.90;;
6785;SDS011;3430;51.192;6.048;2022-08-18T10:15:14;5.80;;;5.20;;
6785;SDS011;3430;51.192;6.048;2022-08-18T10:17:46;5.77;;;4.67;;
6785;SDS011;3430;51.192;6.048;2022-08-18T10:20:35;4.57;;;4.07;;
6785;SDS011;3430;51.192;6.048;2022-08-18T10:23:07;5.53;;;4.70;;
6785;SDS011;3430;51.192;6.048;2022-08-18T10:27:58;4.77;;;4.03;;
6785;SDS011;3430;51.192;6.048;2022-08-18T10:32:57;5.77;;;5.07;;
6785;SDS011;3430;51.192;6.048;2022-08-18T10:37:58;5.50;;;4.47;;
6785;SDS011;3430;51.192;6.048;2022-08-18T10:40:24;4.77;;;4.10;;
6785;SDS011;3430;51.192;6.048;2022-08-18T10:45:29;4.27;;;3.67;;
6785;SDS011;3430;51.192;6.048;2022-08-18T10:50:36;4.23;;;3.83;;
6785;SDS011;3430;51.192;6.048;2022-08-18T10:53:15;5.17;;;3.70;;
6785;SDS011;3430;51.192;6.048;2022-08-18T10:58:34;4.43;;;4.03;;
6785;SDS011;3430;51.192;6.048;2022-08-18T11:04:48;3.80;;;3.27;;
6785;SDS011;3430;51.192;6.048;2022-08-18T11:07:02;4.97;;;3.50;;
6785;SDS011;3430;51.192;6.048;2022-08-18T11:09:28;4.37;;;3.67;;
6785;SDS011;3430;51.192;6.048;2022-08-18T11:11:55;4.23;;;3.23;;
6785;SDS011;3430;51.192;6.048;2022-08-18T11:19:15;4.33;;;3.93;;
6785;SDS011;3430;51.192;6.048;2022-08-18T11:21:42;4.43;;;4.03;;
6785;SDS011;3430;51.192;6.048;2022-08-18T11:26:35;4.93;;;3.30;;
6785;SDS011;3430;51.192;6.048;2022-08-18T11:31:41;4.27;;;3.50;;
6785;SDS011;3430;51.192;6.048;2022-08-18T11:34:10;4.40;;;3.60;;
6785;SDS011;3430;51.192;6.048;2022-08-18T11:36:37;3.63;;;3.30;;
6785;SDS011;3430;51.192;6.048;2022-08-18T11:39:06;5.23;;;3.23;;
6785;SDS011;3430;51.192;6.048;2022-08-18T11:41:33;6.03;;;3.80;;
6785;SDS011;3430;51.192;6.048;2022-08-18T11:43:58;3.30;;;2.93;;
6785;SDS011;3430;51.192;6.048;2022-08-18T11:46:28;3.23;;;2.93;;
6785;SDS011;3430;51.192;6.048;2022-08-18T11:48:54;4.27;;;3.83;;
6785;SDS011;3430;51.192;6.048;2022-08-18T11:51:23;3.70;;;3.40;;
6785;SDS011;3430;51.192;6.048;2022-08-18T11:56:35;3.97;;;3.57;;
6785;SDS011;3430;51.192;6.048;2022-08-18T11:59:03;4.47;;;3.40;;
6785;SDS011;3430;51.192;6.048;2022-08-18T12:04:13;4.27;;;3.87;;
6785;SDS011;3430;51.192;6.048;2022-08-18T12:15:31;3.47;;;3.03;;
6785;SDS011;3430;51.192;6.048;2022-08-18T12:18:45;4.57;;;3.50;;
6785;SDS011;3430;51.192;6.048;2022-08-18T12:38:04;5.80;;;3.20;;
6785;SDS011;3430;51.192;6.048;2022-08-18T13:12:30;3.63;;;3.10;;
6785;SDS011;3430;51.192;6.048;2022-08-18T13:31:53;3.40;;;3.10;;
6785;SDS011;3430;51.192;6.048;2022-08-18T13:54:04;3.23;;;2.97;;
6785;SDS011;3430;51.192;6.048;2022-08-18T14:28:38;2.80;;;2.60;;
6785;SDS011;3430;51.192;6.048;2022-08-18T15:26:38;4.63;;;3.50;;
6785;SDS011;3430;51.192;6.048;2022-08-18T15:29:04;3.97;;;3.67;;
6785;SDS011;3430;51.192;6.048;2022-08-18T15:31:33;3.50;;;3.20;;
6785;SDS011;3430;51.192;6.048;2022-08-18T15:33:59;3.83;;;3.40;;
6785;SDS011;3430;51.192;6.048;2022-08-18T15:36:25;3.43;;;2.77;;
6785;SDS011;3430;51.192;6.048;2022-08-18T15:38:50;3.37;;;3.07;;
6785;SDS011;3430;51.192;6.048;2022-08-18T15:43:54;3.63;;;3.27;;
6785;SDS011;3430;51.192;6.048;2022-08-18T15:46:21;3.40;;;3.10;;
6785;SDS011;3430;51.192;6.048;2022-08-18T15:48:46;3.77;;;3.37;;
6785;SDS011;3430;51.192;6.048;2022-08-18T15:51:12;3.60;;;3.30;;
6785;SDS011;3430;51.192;6.048;2022-08-18T15:53:37;3.20;;;2.90;;
6785;SDS011;3430;51.192;6.048;2022-08-18T15:56:02;3.97;;;3.33;;
6785;SDS011;3430;51.192;6.048;2022-08-18T15:58:28;3.03;;;2.80;;
6785;SDS011;3430;51.192;6.048;2022-08-18T16:00:54;4.07;;;3.40;;
6785;SDS011;3430;51.192;6.048;2022-08-18T16:03:19;3.27;;;2.97;;
6785;SDS011;3430;51.192;6.048;2022-08-18T16:05:52;4.33;;;3.00;;
6785;SDS011;3430;51.192;6.048;2022-08-18T16:08:22;3.60;;;3.30;;
6785;SDS011;3430;51.192;6.048;2022-08-18T16:10:48;3.70;;;3.30;;
6785;SDS011;3430;51.192;6.048;2022-08-18T16:13:22;3.27;;;2.97;;
6785;SDS011;3430;51.192;6.048;2022-08-18T16:15:50;4.80;;;3.30;;
6785;SDS011;3430;51.192;6.048;2022-08-18T16:18:17;4.63;;;3.43;;
6785;SDS011;3430;51.192;6.048;2022-08-18T16:20:43;3.03;;;2.83;;
6785;SDS011;3430;51.192;6.048;2022-08-18T16:23:09;3.47;;;3.17;;
6785;SDS011;3430;51.192;6.048;2022-08-18T16:25:36;4.07;;;3.67;;
6785;SDS011;3430;51.192;6.048;2022-08-18T16:28:02;3.40;;;3.10;;
6785;SDS011;3430;51.192;6.048;2022-08-18T16:30:28;3.50;;;3.20;;
6785;SDS011;3430;51.192;6.048;2022-08-18T16:32:53;4.60;;;3.40;;
6785;SDS011;3430;51.192;6.048;2022-08-18T16:35:20;5.10;;;3.23;;
6785;SDS011;3430;51.192;6.048;2022-08-18T16:37:48;3.23;;;2.90;;
6785;SDS011;3430;51.192;6.048;2022-08-18T16:40:14;3.93;;;3.40;;
6785;SDS011;3430;51.192;6.048;2022-08-18T16:42:40;3.60;;;3.20;;
6785;SDS011;3430;51.192;6.048;2022-08-18T16:45:06;3.40;;;3.10;;
6785;SDS011;3430;51.192;6.048;2022-08-18T16:47:33;3.83;;;3.23;;
6785;SDS011;3430;51.192;6.048;2022-08-18T16:50:04;4.20;;;3.10;;
6785;SDS011;3430;51.192;6.048;2022-08-18T16:52:30;3.50;;;3.20;;
6785;SDS011;3430;51.192;6.048;2022-08-18T16:54:56;3.63;;;3.33;;
6785;SDS011;3430;51.192;6.048;2022-08-18T16:57:23;3.20;;;2.90;;
6785;SDS011;3430;51.192;6.048;2022-08-18T17:00:08;4.37;;;3.10;;
6785;SDS011;3430;51.192;6.048;2022-08-18T17:02:52;4.33;;;3.37;;
6785;SDS011;3430;51.192;6.048;2022-08-18T17:05:36;3.53;;;3.23;;
6785;SDS011;3430;51.192;6.048;2022-08-18T17:08:01;3.20;;;2.90;;
6785;SDS011;3430;51.192;6.048;2022-08-18T17:10:27;3.53;;;2.93;;
6785;SDS011;3430;51.192;6.048;2022-08-18T17:12:55;3.30;;;3.00;;
6785;SDS011;3430;51.192;6.048;2022-08-18T17:15:21;3.90;;;3.33;;
6785;SDS011;3430;51.192;6.048;2022-08-18T17:17:46;4.33;;;3.17;;
6785;SDS011;3430;51.192;6.048;2022-08-18T17:20:12;3.80;;;3.50;;
6785;SDS011;3430;51.192;6.048;2022-08-18T17:22:37;3.73;;;3.10;;
6785;SDS011;3430;51.192;6.048;2022-08-18T17:25:03;3.80;;;3.17;;
6785;SDS011;3430;51.192;6.048;2022-08-18T17:27:32;3.83;;;3.53;;
6785;SDS011;3430;51.192;6.048;2022-08-18T17:30:06;4.27;;;3.37;;
6785;SDS011;3430;51.192;6.048;2022-08-18T17:38:00;3.40;;;3.10;;
6785;SDS011;3430;51.192;6.048;2022-08-18T17:40:30;3.73;;;3.33;;
6785;SDS011;3430;51.192;6.048;2022-08-18T17:42:58;4.17;;;3.60;;
6785;SDS011;3430;51.192;6.048;2022-08-18T17:45:24;3.40;;;3.10;;
6785;SDS011;3430;51.192;6.048;2022-08-18T17:48:12;3.73;;;3.03;;
6785;SDS011;3430;51.192;6.048;2022-08-18T17:50:40;3.70;;;3.40;;
6785;SDS011;3430;51.192;6.048;2022-08-18T17:53:26;3.27;;;2.97;;
6785;SDS011;3430;51.192;6.048;2022-08-18T17:55:57;3.43;;;2.90;;
6785;SDS011;3430;51.192;6.048;2022-08-18T17:58:33;3.50;;;3.20;;
6785;SDS011;3430;51.192;6.048;2022-08-18T18:01:03;3.40;;;3.10;;
6785;SDS011;3430;51.192;6.048;2022-08-18T18:03:29;4.80;;;3.20;;
6785;SDS011;3430;51.192;6.048;2022-08-18T18:06:00;3.30;;;3.00;;
6785;SDS011;3430;51.192;6.048;2022-08-18T18:08:45;3.40;;;3.10;;
6785;SDS011;3430;51.192;6.048;2022-08-18T18:11:11;5.33;;;3.27;;
6785;SDS011;3430;51.192;6.048;2022-08-18T18:13:39;3.70;;;3.40;;
6785;SDS011;3430;51.192;6.048;2022-08-18T18:18:43;3.90;;;3.20;;
6785;SDS011;3430;51.192;6.048;2022-08-18T18:21:19;3.67;;;3.37;;
6785;SDS011;3430;51.192;6.048;2022-08-18T18:23:47;4.20;;;3.23;;
6785;SDS011;3430;51.192;6.048;2022-08-18T18:26:21;3.67;;;3.00;;
6785;SDS011;3430;51.192;6.048;2022-08-18T18:28:50;3.40;;;3.10;;
6785;SDS011;3430;51.192;6.048;2022-08-18T18:31:26;3.57;;;3.20;;
6785;SDS011;3430;51.192;6.048;2022-08-18T18:34:06;3.93;;;3.40;;
6785;SDS011;3430;51.192;6.048;2022-08-18T18:36:44;3.40;;;3.03;;
6785;SDS011;3430;51.192;6.048;2022-08-18T18:39:26;5.53;;;3.83;;
6785;SDS011;3430;51.192;6.048;2022-08-18T18:41:52;3.90;;;3.50;;
6785;SDS011;3430;51.192;6.048;2022-08-18T18:44:28;4.20;;;3.67;;
6785;SDS011;3430;51.192;6.048;2022-08-18T18:47:05;3.70;;;3.40;;
6785;SDS011;3430;51.192;6.048;2022-08-18T18:49:35;4.20;;;3.80;;
6785;SDS011;3430;51.192;6.048;2022-08-18T18:56:58;3.53;;;3.23;;
6785;SDS011;3430;51.192;6.048;2022-08-18T19:04:23;5.23;;;3.70;;
6785;SDS011;3430;51.192;6.048;2022-08-18T19:07:26;4.10;;;3.70;;
6785;SDS011;3430;51.192;6.048;2022-08-18T19:09:49;8.83;;;4.37;;
6785;SDS011;3430;51.192;6.048;2022-08-18T19:12:17;5.73;;;3.60;;
6785;SDS011;3430;51.192;6.048;2022-08-18T19:14:52;3.77;;;3.47;;
6785;SDS011;3430;51.192;6.048;2022-08-18T19:20:03;4.57;;;3.40;;
6785;SDS011;3430;51.192;6.048;2022-08-18T19:22:34;4.33;;;3.30;;
6785;SDS011;3430;51.192;6.048;2022-08-18T19:27:32;4.03;;;3.63;;
6785;SDS011;3430;51.192;6.048;2022-08-18T19:30:04;4.17;;;3.77;;
6785;SDS011;3430;51.192;6.048;2022-08-18T19:32:34;4.03;;;3.63;;
6785;SDS011;3430;51.192;6.048;2022-08-18T19:35:01;3.37;;;3.07;;
6785;SDS011;3430;51.192;6.048;2022-08-18T19:40:05;4.30;;;3.90;;
6785;SDS011;3430;51.192;6.048;2022-08-18T19:42:47;4.00;;;3.60;;
6785;SDS011;3430;51.192;6.048;2022-08-18T19:52:56;3.80;;;3.50;;
6785;SDS011;3430;51.192;6.048;2022-08-18T20:00:55;3.40;;;3.10;;
6785;SDS011;3430;51.192;6.048;2022-08-18T20:13:46;4.47;;;3.77;;
6785;SDS011;3430;51.192;6.048;2022-08-18T20:18:53;4.53;;;3.37;;
6785;SDS011;3430;51.192;6.048;2022-08-18T20:28:59;4.10;;;3.70;;
6785;SDS011;3430;51.192;6.048;2022-08-18T20:31:24;4.07;;;3.67;;
6785;SDS011;3430;51.192;6.048;2022-08-18T20:34:09;6.10;;;3.90;;
6785;SDS011;3430;51.192;6.048;2022-08-18T20:36:35;4.87;;;4.33;;
6785;SDS011;3430;51.192;6.048;2022-08-18T20:41:46;4.07;;;3.67;;
6785;SDS011;3430;51.192;6.048;2022-08-18T20:51:49;4.63;;;4.23;;
6785;SDS011;3430;51.192;6.048;2022-08-18T20:54:37;4.30;;;3.90;;
6785;SDS011;3430;51.192;6.048;2022-08-18T20:57:04;5.07;;;4.30;;
6785;SDS011;3430;51.192;6.048;2022-08-18T20:59:43;4.00;;;3.67;;
6785;SDS011;3430;51.192;6.048;2022-08-18T21:04:50;4.70;;;4.20;;
6785;SDS011;3430;51.192;6.048;2022-08-18T21:07:29;4.53;;;3.60;;
6785;SDS011;3430;51.192;6.048;2022-08-18T21:09:59;4.00;;;3.70;;
6785;SDS011;3430;51.192;6.048;2022-08-18T21:12:26;26.83;;;5.70;;
6785;SDS011;3430;51.192;6.048;2022-08-18T21:14:53;4.23;;;3.83;;
6785;SDS011;3430;51.192;6.048;2022-08-18T21:17:19;4.57;;;4.07;;
6785;SDS011;3430;51.192;6.048;2022-08-18T21:19:45;4.87;;;4.30;;
6785;SDS011;3430;51.192;6.048;2022-08-18T21:22:10;4.40;;;4.00;;
6785;SDS011;3430;51.192;6.048;2022-08-18T21:24:44;4.20;;;3.60;;
6785;SDS011;3430;51.192;6.048;2022-08-18T21:27:27;4.20;;;3.80;;
6785;SDS011;3430;51.192;6.048;2022-08-18T21:29:59;4.93;;;4.30;;
6785;SDS011;3430;51.192;6.048;2022-08-18T21:32:29;5.20;;;4.17;;